Knight Air

Knight Air knights of the virtual airways


 METAR AND TAF INFORMATION
METAR FOR VOTV
ADDS - METARS form results

(1711 UTC 11 May 2021)
Data provider http://aviationweather.gov/metar/data/
 
METAR text: VOTV 111700Z 25004KT 2500 TSRA SCT008 SCT012 FEW025CB OVC080 28/27 Q1010 TEMPO 2000 TSRA
Conditions at: VOTV (THIRUVANANTHAPUR, IN) observed 1700 UTC 11 May 2021
Temperature: 28.0°C (82°F)
Dewpoint: 27.0°C (81°F) [RH = 94%]
Pressure (altimeter): 29.82 inches Hg (1010.0 mb)
Winds: from the WSW (250 degrees) at 5 MPH (4 knots; 2.1 m/s)
Visibility: 1.55 miles (2.49 km)
Ceiling: 8000 feet AGL
Clouds: scattered clouds at 800 feet AGL
scattered clouds at 1200 feet AGL
few clouds at 2500 feet AGL
overcast cloud deck at 8000 feet AGL
Weather: TSRA  (rain associated with thunderstorm(s))

METAR text: VOTV 111630Z 28005KT 2500 TSRA SCT008 SCT012 FEW025CB OVC080 27/27 Q1009 NOSIG
Conditions at: VOTV (THIRUVANANTHAPUR, IN) observed 1630 UTC 11 May 2021
Temperature: 27.0°C (81°F)
Dewpoint: 27.0°C (81°F) [RH = 100%]
Pressure (altimeter): 29.79 inches Hg (1009.0 mb)
Winds: from the W (280 degrees) at 6 MPH (5 knots; 2.6 m/s)
Visibility: 1.55 miles (2.49 km)
Ceiling: 8000 feet AGL
Clouds: scattered clouds at 800 feet AGL
scattered clouds at 1200 feet AGL
few clouds at 2500 feet AGL
overcast cloud deck at 8000 feet AGL
Weather: TSRA  (rain associated with thunderstorm(s))

Forecast for: VOTV (THIRUVANANTHAPUR, IN)
Text: TAF VOTV 111400Z 1115/1124 30005KT 2000 TSRA BR SCT010 FEW025CB OVC080
Forecast period: 1500 to 1800 UTC 11 May 2021
Forecast type: FROM: standard forecast or significant change
Winds: from the WNW (300 degrees) at 6 MPH (5 knots; 2.6 m/s)
Visibility: 1.24 miles (2.00 km)
Ceiling: 8000 feet AGL
Clouds: scattered clouds at 1000 feet AGL
few clouds at 2500 feet AGL
overcast cloud deck at 8000 feet AGL
Weather: TSRA BR  (rain associated with thunderstorm(s), mist)
Text: BECMG 1118/1120 VRB03KT 3000 BR SCT012 FEW025CB BKN080
Forecast period: 1800 UTC 11 May 2021 to 0000 UTC 12 May 2021
Forecast type: BECOMING: Conditions expected to become as follows by 2000 UTC 11 May 2021
Winds: variable direction winds at 3 MPH (3 knots; 1.5 m/s)
Visibility: 1.86 miles (2.99 km)
Ceiling: 8000 feet AGL
Clouds: scattered clouds at 1200 feet AGL
few clouds at 2500 feet AGL
broken clouds at 8000 feet AGL
Weather: BR  (mist)

 AIRPORT MAP

 RUNWAY INFORMATION
Runway 14 Runway length 11148 ft Runway width 150 ft
Runway elevation 14 ft Runway displaced threshold 1332 ft Runway heading 136
Runway 32 Runway length 11148 ft Runway width 150 ft
Runway elevation 14 ft Runway displaced threshold 522 ft Runway heading 316

 AIRPORT FREQUENCIES
Type ACC Name CON Frequency 125.9 MHZ
Type APP Name APP Frequency 119.6 MHZ
Type ATIS Name ATIS Frequency 126.6 MHZ
Type RDO Name RDO Frequency 1128.5 MHZ
Type TWR Name TWR Frequency 118.1 MHZ

 AIRPORT NEAR NAVIGATION AIDS
Type VOR-DME Name Trivandrum Frequency 115100 KHZ